Time;durP1;ratioP1;P1;durP2;ratioP2;P2;SDS_P1;SDS_P2;PMS_P1;PMS_P2;Temp;Humidity;BMP_temperature;BMP_pressure;BME280_temperature;BME280_humidity;BME280_pressure;Samples;Min_cycle;Max_cycle;Signal;HPM_P1;HPM_P2
2021/08/27 00:01:13;;;;;;;;;;;;;;;23.67;56.77;100262.06;4993175;28;1902;-48
2021/08/27 00:03:42;;;;;;;;;;;;;;;23.70;56.79;100250.09;4993441;28;1520;-49
2021/08/27 00:06:12;;;;;;;;;;;;;;;23.70;56.87;100260.91;5002065;28;1716;-48
2021/08/27 00:08:41;;;;;;;;;;;;;;;23.72;56.42;100261.56;4992902;28;1718;-48
2021/08/27 00:11:10;;;;;;;;;;;;;;;23.70;56.59;100253.63;4997498;28;1754;-48
2021/08/27 00:13:38;;;;;;;;;;;;;;;23.77;56.61;100262.72;4993086;28;1922;-48
2021/08/27 00:16:05;;;;;;;;;;;;;;;23.66;57.08;100254.19;4992428;28;1749;-48
2021/08/27 00:18:35;;;;;;;;;;;;;;;23.60;57.10;100261.13;4993692;28;1171;-48
2021/08/27 00:21:04;;;;;;;;;;;;;;;23.58;57.02;100260.47;4993292;28;1913;-48
2021/08/27 00:23:32;;;;;;;;;;;;;;;23.57;57.02;100250.66;4996085;28;1894;-48
2021/08/27 00:25:59;;;;;;;;;;;;;;;23.62;57.11;100246.44;4993845;28;1821;-48
2021/08/27 00:28:29;;;;;;;;;;;;;;;23.56;57.10;100260.63;4993420;28;1661;-48
2021/08/27 00:30:58;;;;;;;;;;;;;;;23.53;56.91;100254.75;4993124;28;1824;-48
2021/08/27 00:33:24;;;;;;;;;;;;;;;23.48;57.16;100238.28;4993859;28;1733;-48
2021/08/27 00:35:55;;;;;;;;;;;;;;;23.50;56.93;100249.72;4993206;28;1778;-48
2021/08/27 00:38:29;;;;;;;;;;;;;;;23.51;56.79;100248.69;4993753;28;1778;-48
2021/08/27 00:40:58;;;;;;;;;;;;;;;23.56;56.13;100232.81;4989802;28;1906;-48
2021/08/27 00:43:25;;;;;;;;;;;;;;;23.50;56.69;100250.56;4993264;28;1977;-48
2021/08/27 00:45:54;;;;;;;;;;;;;;;23.58;56.71;100230.78;4993472;28;1879;-48
2021/08/27 00:48:22;;;;;;;;;;;;;;;23.50;56.57;100236.22;5008919;28;1841;-48
2021/08/27 00:50:49;;;;;;;;;;;;;;;23.48;56.66;100235.56;4994848;28;1615;-48
2021/08/27 00:53:21;;;;;;;;;;;;;;;23.41;56.88;100230.84;4992969;28;1855;-48
2021/08/27 00:55:49;;;;;;;;;;;;;;;23.28;57.17;100224.34;4994767;28;1604;-48
2021/08/27 00:58:16;;;;;;;;;;;;;;;23.21;57.27;100245.81;4992345;28;1791;-48
2021/08/27 01:01:03;;;;;;;;;;;;;;;23.15;57.44;100254.63;4995115;28;1973;-48
2021/08/27 01:03:32;;;;;;;;;;;;;;;23.25;57.43;100235.53;4989464;28;1603;-48
2021/08/27 01:06:07;;;;;;;;;;;;;;;23.37;57.08;100228.69;4994036;28;1992;-48
2021/08/27 01:08:49;;;;;;;;;;;;;;;23.31;57.33;100213.22;4995547;28;1554;-48
2021/08/27 01:11:25;;;;;;;;;;;;;;;23.27;57.13;100225.38;4994360;28;1989;-49
2021/08/27 01:13:55;;;;;;;;;;;;;;;23.20;57.33;100217.19;4994074;28;1960;-48
2021/08/27 01:16:30;;;;;;;;;;;;;;;23.02;57.60;100220.13;4995348;28;1824;-48
2021/08/27 01:19:02;;;;;;;;;;;;;;;22.88;57.73;100224.38;4981405;28;1469;-48
2021/08/27 01:21:49;;;;;;;;;;;;;;;22.90;57.83;100222.34;4996630;28;1975;-49
2021/08/27 01:24:21;;;;;;;;;;;;;;;23.10;57.26;100235.41;4972185;28;1557;-48
2021/08/27 01:27:03;;;;;;;;;;;;;;;23.16;57.15;100215.84;4997847;28;1884;-48
2021/08/27 01:29:43;;;;;;;;;;;;;;;23.18;57.03;100213.81;4996270;28;1738;-48
2021/08/27 01:32:18;;;;;;;;;;;;;;;23.17;57.16;100217.50;4996707;28;1001;-48
2021/08/27 01:34:53;;;;;;;;;;;;;;;23.19;56.87;100208.22;4996034;28;1541;-48
2021/08/27 01:37:23;;;;;;;;;;;;;;;23.29;56.94;100209.88;4996098;28;1783;-48
2021/08/27 01:40:06;;;;;;;;;;;;;;;23.33;56.63;100205.78;4995992;28;1970;-48
2021/08/27 01:42:34;;;;;;;;;;;;;;;23.31;56.84;100202.44;4989166;28;1673;-48
2021/08/27 01:45:05;;;;;;;;;;;;;;;23.21;57.20;100198.09;4995813;28;1493;-48
2021/08/27 01:47:33;;;;;;;;;;;;;;;23.18;56.96;100213.81;4999315;28;1749;-48
2021/08/27 01:50:07;;;;;;;;;;;;;;;23.23;56.90;100212.25;5004366;28;1693;-48
2021/08/27 01:52:38;;;;;;;;;;;;;;;23.17;56.97;100209.41;4992336;28;1683;-48
2021/08/27 01:55:08;;;;;;;;;;;;;;;23.25;56.87;100220.16;4995584;28;1449;-48
2021/08/27 01:57:39;;;;;;;;;;;;;;;23.24;56.92;100210.41;4988088;28;1922;-48
2021/08/27 02:02:48;;;;;;;;;;;;;;;23.22;56.94;100220.53;5054014;22;1798;-48
2021/08/27 02:05:16;;;;;;;;;;;;;;;23.29;56.79;100215.25;5021202;28;1489;-48
2021/08/27 02:07:44;;;;;;;;;;;;;;;23.16;56.96;100208.59;5022687;28;1848;-48
2021/08/27 02:10:11;;;;;;;;;;;;;;;23.17;56.77;100209.41;5022839;28;1691;-48
2021/08/27 02:12:37;;;;;;;;;;;;;;;23.25;56.85;100195.88;5022447;28;1780;-48
2021/08/27 02:15:05;;;;;;;;;;;;;;;23.20;56.66;100192.91;5020602;28;1564;-48
2021/08/27 02:17:31;;;;;;;;;;;;;;;23.19;56.76;100188.50;5025163;28;1082;-48
2021/08/27 02:19:59;;;;;;;;;;;;;;;23.15;56.74;100189.88;5026662;28;1977;-48
2021/08/27 02:22:28;;;;;;;;;;;;;;;23.13;56.80;100184.66;5022648;28;1773;-48
2021/08/27 02:24:57;;;;;;;;;;;;;;;23.16;56.65;100202.38;5022216;28;1501;-48
2021/08/27 02:27:24;;;;;;;;;;;;;;;23.07;56.94;100189.94;5020460;28;1500;-48
2021/08/27 02:29:53;;;;;;;;;;;;;;;23.07;56.94;100184.53;5020484;28;1501;-48
2021/08/27 02:32:20;;;;;;;;;;;;;;;23.08;56.91;100195.16;5025022;28;1337;-48
2021/08/27 02:34:47;;;;;;;;;;;;;;;23.12;56.67;100179.44;5028005;28;1709;-48
2021/08/27 02:37:16;;;;;;;;;;;;;;;23.11;56.98;100169.69;5021534;28;1612;-48
2021/08/27 02:39:44;;;;;;;;;;;;;;;23.15;56.63;100171.81;5014814;28;1906;-48
2021/08/27 02:42:11;;;;;;;;;;;;;;;23.13;56.81;100168.47;5019847;28;1603;-48
2021/08/27 02:44:37;;;;;;;;;;;;;;;23.12;56.98;100168.63;5021329;28;1877;-48
2021/08/27 02:47:04;;;;;;;;;;;;;;;23.08;57.29;100183.50;5017559;28;1713;-48
2021/08/27 02:49:31;;;;;;;;;;;;;;;22.93;57.14;100181.53;5016292;28;1614;-48
2021/08/27 02:52:05;;;;;;;;;;;;;;;22.94;57.26;100174.25;5020183;28;1441;-48
2021/08/27 02:54:35;;;;;;;;;;;;;;;23.03;57.31;100194.81;5020391;28;1538;-48
2021/08/27 02:57:04;;;;;;;;;;;;;;;22.98;57.00;100186.41;5017836;28;1525;-48
2021/08/27 02:59:31;;;;;;;;;;;;;;;22.99;56.87;100210.47;5021459;28;1695;-48
2021/08/27 03:01:59;;;;;;;;;;;;;;;23.08;56.87;100224.81;5019256;28;1980;-49
2021/08/27 03:04:29;;;;;;;;;;;;;;;23.14;56.51;100223.25;5007476;28;2341;-48
2021/08/27 03:06:59;;;;;;;;;;;;;;;23.21;56.58;100225.06;5013610;28;1703;-48
2021/08/27 03:09:29;;;;;;;;;;;;;;;23.22;56.73;100220.53;5010440;28;1628;-48
2021/08/27 03:12:00;;;;;;;;;;;;;;;23.21;56.45;100221.53;5011488;28;1515;-48
2021/08/27 03:14:30;;;;;;;;;;;;;;;23.19;56.37;100216.31;5006345;28;1543;-48
2021/08/27 03:16:59;;;;;;;;;;;;;;;23.28;56.32;100208.16;5015671;28;1317;-48
2021/08/27 03:19:29;;;;;;;;;;;;;;;23.22;56.30;100213.28;5028796;28;1859;-48
2021/08/27 03:21:58;;;;;;;;;;;;;;;23.17;56.95;100212.94;5019630;28;1914;-48
2021/08/27 03:24:30;;;;;;;;;;;;;;;23.19;57.08;100204.69;5013866;28;1773;-48
2021/08/27 03:27:00;;;;;;;;;;;;;;;23.22;56.72;100215.13;5018233;28;1901;-48
2021/08/27 03:29:28;;;;;;;;;;;;;;;23.22;56.86;100215.13;5020726;28;2252;-48
2021/08/27 03:31:55;;;;;;;;;;;;;;;23.15;56.88;100227.63;5021864;28;992;-48
2021/08/27 03:34:22;;;;;;;;;;;;;;;23.10;56.96;100235.41;5028434;28;1870;-48
2021/08/27 03:36:50;;;;;;;;;;;;;;;23.06;56.95;100243.03;5019615;28;1702;-48
2021/08/27 03:39:17;;;;;;;;;;;;;;;23.09;57.00;100231.03;5020966;28;1640;-48
2021/08/27 03:41:43;;;;;;;;;;;;;;;23.15;56.89;100247.34;5021121;28;1902;-49
2021/08/27 03:44:10;;;;;;;;;;;;;;;23.14;56.95;100256.47;5018985;28;2004;-48
2021/08/27 03:46:38;;;;;;;;;;;;;;;23.08;57.17;100248.22;5020987;28;1049;-48
2021/08/27 03:49:05;;;;;;;;;;;;;;;22.95;57.30;100240.66;5028559;28;1867;-48
2021/08/27 03:51:31;;;;;;;;;;;;;;;23.02;57.25;100258.72;5021255;28;1735;-48
2021/08/27 03:53:58;;;;;;;;;;;;;;;22.93;57.06;100265.09;5021463;28;1064;-48
2021/08/27 03:56:26;;;;;;;;;;;;;;;22.83;57.65;100243.72;5016244;28;2197;-49
2021/08/27 03:58:53;;;;;;;;;;;;;;;22.90;57.23;100246.59;5017421;28;2143;-48
2021/08/27 04:01:21;;;;;;;;;;;;;;;23.04;57.09;100250.47;5020352;28;2300;-49
2021/08/27 04:03:49;;;;;;;;;;;;;;;22.76;57.33;100247.28;5029146;28;2154;-48
2021/08/27 04:06:15;;;;;;;;;;;;;;;22.66;57.98;100263.69;5020771;28;1364;-50
2021/08/27 04:08:43;;;;;;;;;;;;;;;22.76;57.62;100258.94;5013354;28;2688;-48
2021/08/27 04:11:10;;;;;;;;;;;;;;;22.85;57.59;100251.66;5004442;28;1536;-49
2021/08/27 04:13:37;;;;;;;;;;;;;;;22.97;57.22;100266.44;5016146;28;1518;-48
2021/08/27 04:16:04;;;;;;;;;;;;;;;23.16;56.95;100269.78;5012759;28;1547;-48
2021/08/27 04:18:30;;;;;;;;;;;;;;;23.25;56.95;100284.06;5001315;28;1265;-48
2021/08/27 04:20:59;;;;;;;;;;;;;;;23.22;57.13;100274.47;5019520;28;1972;-48
2021/08/27 04:23:26;;;;;;;;;;;;;;;23.09;57.24;100274.19;5002941;28;1901;-49
2021/08/27 04:25:52;;;;;;;;;;;;;;;23.14;57.10;100269.09;5008894;28;1682;-48
2021/08/27 04:28:19;;;;;;;;;;;;;;;23.16;57.02;100269.78;5005883;28;1862;-48
2021/08/27 04:30:45;;;;;;;;;;;;;;;23.18;57.04;100278.56;5012948;28;1705;-48
2021/08/27 04:33:12;;;;;;;;;;;;;;;23.21;57.47;100283.56;5027332;28;1102;-48
2021/08/27 04:35:38;;;;;;;;;;;;;;;23.19;57.73;100280.22;5008806;28;1851;-48
2021/08/27 04:38:06;;;;;;;;;;;;;;;23.16;57.93;100294.91;5005037;28;1649;-48
2021/08/27 04:40:33;;;;;;;;;;;;;;;23.30;58.14;100304.13;5015513;28;2091;-48
2021/08/27 04:42:59;;;;;;;;;;;;;;;23.26;58.84;100286.59;5022480;28;1706;-47
2021/08/27 04:45:26;;;;;;;;;;;;;;;23.30;58.61;100304.13;5020002;28;1907;-49
2021/08/27 04:47:52;;;;;;;;;;;;;;;23.35;59.21;100299.03;5017587;28;1507;-49
2021/08/27 04:50:19;;;;;;;;;;;;;;;23.57;57.63;100304.66;5010575;28;2100;-48
2021/08/27 04:52:45;;;;;;;;;;;;;;;23.57;57.55;100286.59;5010683;28;1711;-48
2021/08/27 04:55:13;;;;;;;;;;;;;;;23.46;57.79;100287.00;5010299;28;1525;-49
2021/08/27 04:57:41;;;;;;;;;;;;;;;23.40;58.20;100277.75;5008279;28;1581;-48
2021/08/27 05:00:10;;;;;;;;;;;;;;;23.31;57.98;100275.28;5013623;28;1687;-49
2021/08/27 05:02:38;;;;;;;;;;;;;;;23.35;58.57;100274.75;5020507;28;2059;-48
2021/08/27 05:05:06;;;;;;;;;;;;;;;23.53;58.24;100270.94;5014095;28;1867;-47
2021/08/27 05:07:38;;;;;;;;;;;;;;;23.58;58.56;100280.19;5018701;28;1640;-48
2021/08/27 05:10:05;;;;;;;;;;;;;;;23.61;58.52;100268.19;5019575;28;1824;-47
2021/08/27 05:12:34;;;;;;;;;;;;;;;23.67;58.92;100275.56;5018015;28;1808;-46
2021/08/27 05:15:00;;;;;;;;;;;;;;;23.75;58.94;100280.91;5016751;28;2274;-46
2021/08/27 05:17:27;;;;;;;;;;;;;;;23.85;58.96;100286.13;5026280;28;1085;-46
2021/08/27 05:19:53;;;;;;;;;;;;;;;23.88;58.44;100274.13;5028394;28;1788;-46
2021/08/27 05:22:20;;;;;;;;;;;;;;;23.87;58.65;100264.34;5018969;28;1926;-47
2021/08/27 05:24:46;;;;;;;;;;;;;;;23.68;58.99;100252.97;5014523;28;1882;-46
2021/08/27 05:27:13;;;;;;;;;;;;;;;23.69;59.40;100260.03;5018716;28;1718;-46
2021/08/27 05:29:41;;;;;;;;;;;;;;;23.75;60.14;100280.09;5023619;28;1701;-46
2021/08/27 05:32:08;;;;;;;;;;;;;;;23.54;60.82;100267.25;5025317;28;1092;-49
2021/08/27 05:34:35;;;;;;;;;;;;;;;23.52;61.20;100272.81;5030451;28;1904;-46
2021/08/27 05:37:02;;;;;;;;;;;;;;;23.63;60.91;100260.75;5015855;28;1620;-46
2021/08/27 05:39:28;;;;;;;;;;;;;;;23.58;60.71;100252.38;5021019;28;1600;-46
2021/08/27 05:41:58;;;;;;;;;;;;;;;23.57;60.98;100247.97;5027548;28;1906;-45
2021/08/27 05:44:24;;;;;;;;;;;;;;;23.85;60.76;100242.09;5021940;28;1814;-46
2021/08/27 05:46:55;;;;;;;;;;;;;;;23.98;61.22;100251.25;5014121;28;1479;-47
2021/08/27 05:49:22;;;;;;;;;;;;;;;23.97;61.53;100251.44;5014265;28;1748;-47
2021/08/27 05:51:48;;;;;;;;;;;;;;;23.97;61.62;100268.50;5008509;28;1872;-48
2021/08/27 05:54:15;;;;;;;;;;;;;;;24.02;61.54;100251.75;5005556;28;1807;-47
2021/08/27 05:56:41;;;;;;;;;;;;;;;23.97;61.50;100246.91;5014287;28;1073;-48
2021/08/27 05:59:08;;;;;;;;;;;;;;;23.92;61.86;100227.69;5013851;28;1059;-48
2021/08/27 06:01:34;;;;;;;;;;;;;;;23.93;61.77;100233.91;5014026;28;1976;-48
2021/08/27 06:04:02;;;;;;;;;;;;;;;23.95;62.11;100229.16;5015941;28;1121;-47
2021/08/27 06:06:29;;;;;;;;;;;;;;;23.97;61.78;100248.72;5015499;28;1128;-47
2021/08/27 06:08:55;;;;;;;;;;;;;;;23.96;61.93;100241.66;5015818;28;1039;-47
2021/08/27 06:11:22;;;;;;;;;;;;;;;23.99;61.50;100250.25;5015790;28;1066;-47
2021/08/27 06:13:48;;;;;;;;;;;;;;;23.99;62.16;100244.84;5015688;28;1953;-47
2021/08/27 06:16:14;;;;;;;;;;;;;;;24.01;62.10;100252.75;5015338;28;1107;-47
2021/08/27 06:18:41;;;;;;;;;;;;;;;24.01;61.89;100239.25;5015559;28;1095;-47
2021/08/27 06:21:09;;;;;;;;;;;;;;;24.04;61.74;100252.41;5015763;28;1906;-47
2021/08/27 06:23:35;;;;;;;;;;;;;;;24.04;61.86;100263.22;5015582;28;1015;-47
2021/08/27 06:26:02;;;;;;;;;;;;;;;24.01;62.40;100250.06;5015504;28;1000;-47
2021/08/27 06:28:28;;;;;;;;;;;;;;;24.06;62.82;100258.47;5015478;28;1924;-47
2021/08/27 06:30:55;;;;;;;;;;;;;;;24.02;62.72;100252.56;5014993;28;1104;-47
2021/08/27 06:33:21;;;;;;;;;;;;;;;24.07;62.92;100257.44;5015046;28;1152;-47
2021/08/27 06:35:48;;;;;;;;;;;;;;;24.07;63.06;100265.53;5014897;28;1136;-47
2021/08/27 06:38:25;;;;;;;;;;;;;;;24.08;63.40;100277.19;5015232;28;1003;-47
2021/08/27 06:40:52;;;;;;;;;;;;;;;24.04;63.22;100284.81;5015226;28;991;-47
2021/08/27 06:43:19;;;;;;;;;;;;;;;24.07;63.09;100295.25;5015085;28;1903;-47
2021/08/27 06:45:45;;;;;;;;;;;;;;;24.09;62.70;100298.59;5014837;28;1091;-47
2021/08/27 06:48:12;;;;;;;;;;;;;;;24.10;62.96;100289.50;5014778;28;1152;-47
2021/08/27 06:50:39;;;;;;;;;;;;;;;24.11;62.44;100291.16;5015258;28;986;-47
2021/08/27 06:53:05;;;;;;;;;;;;;;;24.10;62.44;100303.00;5014624;28;1186;-47
2021/08/27 06:55:33;;;;;;;;;;;;;;;24.14;63.22;100308.88;5014930;28;1077;-47
2021/08/27 06:58:01;;;;;;;;;;;;;;;24.13;62.89;100318.88;5014902;28;995;-47
2021/08/27 07:00:27;;;;;;;;;;;;;;;24.13;62.40;100323.41;5014553;28;1130;-47
2021/08/27 07:02:54;;;;;;;;;;;;;;;24.15;62.87;100324.94;5012883;28;1910;-47
2021/08/27 07:05:20;;;;;;;;;;;;;;;24.16;62.74;100321.19;5014681;28;1000;-47
2021/08/27 07:07:47;;;;;;;;;;;;;;;24.15;62.87;100319.53;5014449;28;1217;-47
2021/08/27 07:10:14;;;;;;;;;;;;;;;24.18;62.37;100304.81;5014681;28;1072;-47
2021/08/27 07:12:43;;;;;;;;;;;;;;;24.24;62.44;100305.94;5014661;28;1046;-47
2021/08/27 07:15:10;;;;;;;;;;;;;;;24.20;62.56;100306.28;5014315;28;1084;-47
2021/08/27 07:17:36;;;;;;;;;;;;;;;24.30;62.26;100302.50;5014485;28;1007;-47
2021/08/27 07:20:03;;;;;;;;;;;;;;;24.29;62.15;100304.38;5014535;28;986;-47
2021/08/27 07:22:30;;;;;;;;;;;;;;;24.33;62.09;100316.50;5014402;28;1907;-47
2021/08/27 07:24:56;;;;;;;;;;;;;;;24.35;61.33;100321.69;5014494;28;996;-47
2021/08/27 07:27:22;;;;;;;;;;;;;;;24.31;61.63;100306.88;5014091;28;1076;-47
2021/08/27 07:29:50;;;;;;;;;;;;;;;24.33;61.47;100310.25;5013998;28;1030;-47
2021/08/27 07:32:17;;;;;;;;;;;;;;;24.31;61.33;100296.94;5014340;28;1082;-47
2021/08/27 07:34:44;;;;;;;;;;;;;;;24.36;61.43;100304.47;5013990;28;1147;-47
2021/08/27 07:37:11;;;;;;;;;;;;;;;24.38;61.50;100314.09;5013986;28;1060;-47
2021/08/27 07:39:37;;;;;;;;;;;;;;;24.42;61.83;100319.97;5013955;28;1075;-47
2021/08/27 07:42:05;;;;;;;;;;;;;;;24.43;61.49;100321.63;5014091;28;1981;-47
2021/08/27 07:44:32;;;;;;;;;;;;;;;24.43;61.25;100337.84;5014443;28;1087;-47
2021/08/27 07:47:00;;;;;;;;;;;;;;;24.41;61.34;100329.94;5014419;28;1063;-47
2021/08/27 07:49:26;;;;;;;;;;;;;;;24.47;61.42;100343.75;5014381;28;1000;-47
2021/08/27 07:51:53;;;;;;;;;;;;;;;24.46;61.44;100321.28;5014068;28;1090;-47
2021/08/27 07:54:20;;;;;;;;;;;;;;;24.46;60.47;100315.88;5013684;28;1115;-47
2021/08/27 07:56:47;;;;;;;;;;;;;;;24.47;60.77;100305.91;5013763;28;1100;-47
2021/08/27 07:59:13;;;;;;;;;;;;;;;24.49;60.58;100320.06;5013684;28;1166;-47
2021/08/27 08:01:40;;;;;;;;;;;;;;;24.51;60.98;100329.72;5013714;28;1993;-47
2021/08/27 08:04:08;;;;;;;;;;;;;;;24.48;60.42;100305.72;5013781;28;1219;-47
2021/08/27 08:06:35;;;;;;;;;;;;;;;24.54;60.09;100313.13;5013889;28;1067;-47
2021/08/27 08:09:02;;;;;;;;;;;;;;;24.53;60.24;100292.53;5013897;28;1024;-47
2021/08/27 08:11:28;;;;;;;;;;;;;;;24.52;60.59;100296.25;5014089;28;1179;-47
2021/08/27 08:13:55;;;;;;;;;;;;;;;24.54;60.15;100293.38;5014843;28;1002;-47
2021/08/27 08:16:21;;;;;;;;;;;;;;;24.56;60.14;100292.16;5017908;28;1004;-47
2021/08/27 08:18:48;;;;;;;;;;;;;;;24.60;60.11;100306.97;5017826;28;991;-47
2021/08/27 08:21:17;;;;;;;;;;;;;;;24.58;59.95;100302.78;5017518;28;1164;-47
2021/08/27 08:23:44;;;;;;;;;;;;;;;24.58;60.14;100311.72;5017709;28;1957;-47
2021/08/27 08:26:10;;;;;;;;;;;;;;;24.59;60.48;100310.72;5017760;28;1075;-47
2021/08/27 08:28:37;;;;;;;;;;;;;;;24.63;60.64;100321.16;5017393;28;1163;-47
2021/08/27 08:31:03;;;;;;;;;;;;;;;24.58;60.29;100291.97;5017997;28;1040;-47
2021/08/27 08:33:30;;;;;;;;;;;;;;;24.59;60.26;100283.69;5017605;28;1084;-47
2021/08/27 08:35:56;;;;;;;;;;;;;;;24.64;60.34;100299.34;5017515;28;1056;-47
2021/08/27 08:38:24;;;;;;;;;;;;;;;24.58;59.77;100282.00;5017198;28;1144;-47
2021/08/27 08:40:51;;;;;;;;;;;;;;;24.64;60.67;100274.19;5017161;28;1075;-47
2021/08/27 08:43:17;;;;;;;;;;;;;;;24.65;59.73;100270.44;5016964;28;1905;-47
2021/08/27 08:45:46;;;;;;;;;;;;;;;24.61;59.85;100267.25;5017388;28;992;-47
2021/08/27 08:48:12;;;;;;;;;;;;;;;24.61;60.14;100268.13;5017418;28;1012;-47
2021/08/27 08:50:39;;;;;;;;;;;;;;;24.60;60.39;100263.72;5017295;28;1012;-47
2021/08/27 08:53:06;;;;;;;;;;;;;;;24.68;59.73;100278.19;5017165;28;1072;-47
2021/08/27 08:55:37;;;;;;;;;;;;;;;24.70;60.49;100273.44;5016805;28;1178;-47
2021/08/27 08:58:04;;;;;;;;;;;;;;;24.67;59.49;100268.38;5017141;28;1100;-47
2021/08/27 09:00:30;;;;;;;;;;;;;;;24.68;60.40;100275.50;5017570;28;1024;-47
2021/08/27 09:02:57;;;;;;;;;;;;;;;24.66;59.40;100262.16;5016742;28;1985;-47
2021/08/27 09:05:23;;;;;;;;;;;;;;;24.69;59.75;100271.75;5016955;28;1072;-47
2021/08/27 09:07:50;;;;;;;;;;;;;;;24.67;59.35;100257.56;5016712;28;1108;-47
2021/08/27 09:10:20;;;;;;;;;;;;;;;24.70;60.49;100265.34;5016681;28;1160;-47
2021/08/27 09:12:48;;;;;;;;;;;;;;;24.66;59.45;100256.75;5016561;28;1139;-47
2021/08/27 09:15:15;;;;;;;;;;;;;;;24.69;60.31;100256.38;5016836;28;1082;-47
2021/08/27 09:17:43;;;;;;;;;;;;;;;24.74;60.35;100264.75;5016737;28;990;-47
2021/08/27 09:20:10;;;;;;;;;;;;;;;24.72;59.59;100249.75;5016692;28;1107;-47
2021/08/27 09:22:44;;;;;;;;;;;;;;;24.76;60.19;100261.88;5016307;28;1906;-47
2021/08/27 09:25:10;;;;;;;;;;;;;;;24.70;59.52;100236.41;5015651;28;1178;-47
2021/08/27 09:27:57;;;;;;;;;;;;;;;24.73;59.41;100240.59;5016943;28;959;-47
2021/08/27 09:30:25;;;;;;;;;;;;;;;24.76;59.48;100251.06;5016145;28;2083;-47
2021/08/27 09:32:51;;;;;;;;;;;;;;;24.71;60.22;100243.53;5016529;28;992;-47
2021/08/27 09:35:19;;;;;;;;;;;;;;;24.71;60.26;100231.84;5016849;28;2046;-47
2021/08/27 09:37:46;;;;;;;;;;;;;;;24.76;59.40;100238.38;5016138;28;1092;-47
2021/08/27 09:40:14;;;;;;;;;;;;;;;24.75;59.63;100227.75;5016082;28;1080;-47
2021/08/27 09:42:41;;;;;;;;;;;;;;;24.75;60.24;100222.34;5016210;28;1972;-47
2021/08/27 09:45:09;;;;;;;;;;;;;;;24.74;59.38;100221.50;5016305;28;1052;-47
2021/08/27 09:47:37;;;;;;;;;;;;;;;24.79;59.22;100220.97;5015949;28;1175;-47
2021/08/27 09:50:22;;;;;;;;;;;;;;;24.74;59.20;100207.16;5016216;28;1035;-47
2021/08/27 09:52:52;;;;;;;;;;;;;;;24.76;59.11;100200.53;5016166;28;967;-47
2021/08/27 09:55:19;;;;;;;;;;;;;;;24.83;59.16;100219.56;5016030;28;1075;-47
2021/08/27 09:57:46;;;;;;;;;;;;;;;24.78;59.33;100208.44;5015729;28;1056;-47
2021/08/27 10:00:17;;;;;;;;;;;;;;;24.75;59.96;100208.81;5015668;28;1072;-48
2021/08/27 10:02:45;;;;;;;;;;;;;;;24.74;59.36;100205.28;5015629;28;1906;-47
2021/08/27 10:05:12;;;;;;;;;;;;;;;24.75;59.56;100206.09;5015932;28;1078;-47
2021/08/27 10:07:40;;;;;;;;;;;;;;;24.76;59.34;100199.69;5015830;28;992;-47
2021/08/27 10:10:07;;;;;;;;;;;;;;;24.80;59.29;100206.41;5015501;28;1068;-47
2021/08/27 10:12:35;;;;;;;;;;;;;;;24.79;59.73;100207.44;5015771;28;1089;-47
2021/08/27 10:15:01;;;;;;;;;;;;;;;24.83;60.01;100219.56;5015886;28;1535;-47
2021/08/27 10:17:28;;;;;;;;;;;;;;;24.80;59.76;100204.53;5015611;28;1028;-47
2021/08/27 10:19:56;;;;;;;;;;;;;;;24.80;59.09;100199.13;5015315;28;1227;-47
2021/08/27 10:22:23;;;;;;;;;;;;;;;24.85;59.60;100206.69;5015195;28;1981;-47
2021/08/27 10:24:50;;;;;;;;;;;;;;;24.84;59.56;100213.09;5015551;28;996;-47
2021/08/27 10:27:17;;;;;;;;;;;;;;;24.84;60.05;100205.00;5015439;28;1111;-47
2021/08/27 10:29:50;;;;;;;;;;;;;;;24.85;59.27;100190.47;5015352;28;1108;-47
2021/08/27 10:32:32;;;;;;;;;;;;;;;24.81;59.14;100194.56;5015130;28;1171;-47
2021/08/27 10:34:59;;;;;;;;;;;;;;;24.84;59.45;100199.59;5014186;28;1664;-47
2021/08/27 10:37:42;;;;;;;;;;;;;;;24.86;59.45;100208.34;5015195;28;1082;-47
2021/08/27 10:40:23;;;;;;;;;;;;;;;24.84;59.11;100186.06;5015284;28;1093;-47
2021/08/27 10:42:50;;;;;;;;;;;;;;;24.87;58.97;100192.94;5014516;28;1902;-47
2021/08/27 10:45:17;;;;;;;;;;;;;;;24.86;59.59;100192.13;5015144;28;1082;-47
2021/08/27 10:47:59;;;;;;;;;;;;;;;24.87;59.10;100191.13;5015047;28;1100;-47
2021/08/27 10:50:30;;;;;;;;;;;;;;;24.86;59.23;100184.00;5013971;28;1675;-47
2021/08/27 10:53:22;;;;;;;;;;;;;;;24.89;59.51;100208.00;5015042;28;1067;-47
2021/08/27 10:55:49;;;;;;;;;;;;;;;24.89;59.38;100191.75;5014610;28;1160;-47
2021/08/27 10:58:18;;;;;;;;;;;;;;;24.92;59.78;100199.47;5015747;28;1074;-47
2021/08/27 11:00:47;;;;;;;;;;;;;;;24.91;59.19;100192.41;5014553;28;1076;-47
2021/08/27 11:03:15;;;;;;;;;;;;;;;24.89;59.12;100180.09;5014300;28;1910;-47
2021/08/27 11:05:45;;;;;;;;;;;;;;;24.90;59.55;100179.06;5014395;28;1142;-47
2021/08/27 11:08:12;;;;;;;;;;;;;;;24.91;59.41;100188.84;5014497;28;1979;-47
2021/08/27 11:10:40;;;;;;;;;;;;;;;24.89;59.38;100175.53;5014706;28;1083;-47
2021/08/27 11:13:15;;;;;;;;;;;;;;;24.94;59.14;100181.19;5014695;28;1074;-47
2021/08/27 11:15:42;;;;;;;;;;;;;;;24.90;59.48;100177.19;5014623;28;995;-47
2021/08/27 11:18:25;;;;;;;;;;;;;;;24.92;59.41;100183.25;5014539;28;956;-47
2021/08/27 11:20:54;;;;;;;;;;;;;;;24.92;58.92;100164.31;5011408;28;1943;-47
2021/08/27 11:23:21;;;;;;;;;;;;;;;24.95;59.15;100182.06;5014167;28;1910;-47
2021/08/27 11:26:04;;;;;;;;;;;;;;;24.93;59.09;100175.97;5014765;28;1090;-47
2021/08/27 11:28:32;;;;;;;;;;;;;;;24.90;59.47;100182.59;5014154;28;1123;-47
2021/08/27 11:31:03;;;;;;;;;;;;;;;24.92;59.14;100177.84;5014043;28;1118;-47
2021/08/27 11:33:56;;;;;;;;;;;;;;;24.94;59.42;100189.31;5014416;28;1090;-47
2021/08/27 11:36:24;;;;;;;;;;;;;;;24.93;59.45;100182.25;5014570;28;1140;-47
2021/08/27 11:38:52;;;;;;;;;;;;;;;24.96;59.78;100181.84;5014511;28;1016;-47
2021/08/27 11:41:19;;;;;;;;;;;;;;;24.93;59.54;100171.41;5014495;28;1147;-47
2021/08/27 11:43:47;;;;;;;;;;;;;;;24.93;58.87;100166.00;5013776;28;1977;-47
2021/08/27 11:46:15;;;;;;;;;;;;;;;24.92;59.36;100158.91;5014172;28;1020;-47
2021/08/27 11:48:43;;;;;;;;;;;;;;;24.93;59.43;100159.75;5013699;28;1927;-47
2021/08/27 11:51:16;;;;;;;;;;;;;;;24.95;59.42;100188.31;5014084;28;1055;-47
2021/08/27 11:53:43;;;;;;;;;;;;;;;24.93;59.20;100167.84;5014303;28;1052;-47
2021/08/27 11:56:12;;;;;;;;;;;;;;;24.98;59.30;100179.78;5014056;28;1139;-47
2021/08/27 11:58:42;;;;;;;;;;;;;;;24.95;59.45;100166.66;5014140;28;1143;-47
2021/08/27 12:01:23;;;;;;;;;;;;;;;24.96;59.90;100173.72;5014112;28;1419;-48
2021/08/27 12:03:49;;;;;;;;;;;;;;;24.95;59.68;100171.25;5013591;28;1910;-47
2021/08/27 12:06:18;;;;;;;;;;;;;;;24.96;58.91;100160.22;5014043;28;1059;-47
2021/08/27 12:08:48;;;;;;;;;;;;;;;24.99;59.11;100175.25;5013844;28;1099;-47
2021/08/27 12:11:14;;;;;;;;;;;;;;;24.94;59.17;100164.97;5014152;28;992;-47
2021/08/27 12:13:49;;;;;;;;;;;;;;;24.99;59.91;100165.25;5013875;28;1939;-47
2021/08/27 12:16:16;;;;;;;;;;;;;;;24.96;59.24;100160.22;5013806;28;1096;-47
2021/08/27 12:18:42;;;;;;;;;;;;;;;24.94;59.58;100154.16;5013601;28;1112;-47
2021/08/27 12:21:10;;;;;;;;;;;;;;;24.98;59.48;100147.31;5013838;28;1075;-47
2021/08/27 12:23:38;;;;;;;;;;;;;;;24.95;59.39;100150.44;5013630;28;1905;-47
2021/08/27 12:26:08;;;;;;;;;;;;;;;24.95;59.12;100147.72;5013779;28;1028;-47
2021/08/27 12:28:36;;;;;;;;;;;;;;;24.94;59.11;100150.63;5013440;28;1060;-47
2021/08/27 12:31:02;;;;;;;;;;;;;;;24.95;59.19;100139.63;5013931;28;1071;-47
2021/08/27 12:33:31;;;;;;;;;;;;;;;24.94;59.04;100145.19;5013678;28;1091;-47
2021/08/27 12:35:57;;;;;;;;;;;;;;;24.95;59.50;100142.31;5013278;28;1521;-47
2021/08/27 12:38:24;;;;;;;;;;;;;;;24.95;59.18;100141.50;5013363;28;1159;-47
2021/08/27 12:40:50;;;;;;;;;;;;;;;24.98;59.29;100147.31;5013593;28;1039;-46
2021/08/27 12:43:22;;;;;;;;;;;;;;;24.96;59.82;100137.75;5013381;28;1985;-47
2021/08/27 12:45:50;;;;;;;;;;;;;;;24.97;59.68;100140.25;5013564;28;1012;-47
2021/08/27 12:48:18;;;;;;;;;;;;;;;24.96;59.51;100143.16;5013668;28;1070;-47
2021/08/27 12:50:45;;;;;;;;;;;;;;;24.97;59.59;100132.16;5013193;28;1525;-47
2021/08/27 12:53:12;;;;;;;;;;;;;;;24.94;59.78;100119.00;5013538;28;1082;-47
2021/08/27 12:55:38;;;;;;;;;;;;;;;24.95;59.73;100142.31;5013454;28;1074;-47
2021/08/27 12:58:05;;;;;;;;;;;;;;;24.96;59.58;100143.16;5013390;28;1206;-47